sensor_id;sensor_type;location;lat;lon;timestamp;temperature;humidity
6552;DHT22;3309;48.708;9.290;2023-12-29T00:01:14;8.60;1.00
6552;DHT22;3309;48.708;9.290;2023-12-29T00:03:40;8.50;1.00
6552;DHT22;3309;48.708;9.290;2023-12-29T00:06:05;8.40;1.00
6552;DHT22;3309;48.708;9.290;2023-12-29T00:08:31;8.30;4.90
6552;DHT22;3309;48.708;9.290;2023-12-29T00:10:57;8.30;10.00
6552;DHT22;3309;48.708;9.290;2023-12-29T00:13:22;8.50;1.00
6552;DHT22;3309;48.708;9.290;2023-12-29T00:15:52;8.50;1.00
6552;DHT22;3309;48.708;9.290;2023-12-29T00:18:19;8.60;1.00
6552;DHT22;3309;48.708;9.290;2023-12-29T00:20:44;8.70;1.00
6552;DHT22;3309;48.708;9.290;2023-12-29T00:23:10;8.70;1.00
6552;DHT22;3309;48.708;9.290;2023-12-29T00:25:36;8.60;1.00
6552;DHT22;3309;48.708;9.290;2023-12-29T00:28:03;8.70;1.00
6552;DHT22;3309;48.708;9.290;2023-12-29T00:30:28;8.80;1.00
6552;DHT22;3309;48.708;9.290;2023-12-29T00:32:57;8.70;1.00
6552;DHT22;3309;48.708;9.290;2023-12-29T00:35:22;8.70;1.00
6552;DHT22;3309;48.708;9.290;2023-12-29T00:37:50;8.80;1.00
6552;DHT22;3309;48.708;9.290;2023-12-29T00:40:15;8.80;1.00
6552;DHT22;3309;48.708;9.290;2023-12-29T00:42:41;8.80;1.00
6552;DHT22;3309;48.708;9.290;2023-12-29T00:45:07;8.80;1.00
6552;DHT22;3309;48.708;9.290;2023-12-29T00:47:33;8.90;1.00
6552;DHT22;3309;48.708;9.290;2023-12-29T00:49:59;8.90;1.00
6552;DHT22;3309;48.708;9.290;2023-12-29T00:52:25;9.00;1.00
6552;DHT22;3309;48.708;9.290;2023-12-29T00:54:50;9.00;1.00
6552;DHT22;3309;48.708;9.290;2023-12-29T00:57:16;9.10;1.00
6552;DHT22;3309;48.708;9.290;2023-12-29T00:59:42;9.10;1.00
6552;DHT22;3309;48.708;9.290;2023-12-29T01:02:09;9.10;1.00
6552;DHT22;3309;48.708;9.290;2023-12-29T01:04:37;9.10;1.00
6552;DHT22;3309;48.708;9.290;2023-12-29T01:07:04;9.20;1.00
6552;DHT22;3309;48.708;9.290;2023-12-29T01:09:29;9.10;1.00
6552;DHT22;3309;48.708;9.290;2023-12-29T01:11:55;9.20;99.90
6552;DHT22;3309;48.708;9.290;2023-12-29T01:14:20;9.10;1.00
6552;DHT22;3309;48.708;9.290;2023-12-29T01:16:46;9.10;1.00
6552;DHT22;3309;48.708;9.290;2023-12-29T01:19:11;9.10;1.00
6552;DHT22;3309;48.708;9.290;2023-12-29T01:21:40;9.10;1.00
6552;DHT22;3309;48.708;9.290;2023-12-29T01:24:06;9.10;99.90
6552;DHT22;3309;48.708;9.290;2023-12-29T01:26:37;9.10;1.00
6552;DHT22;3309;48.708;9.290;2023-12-29T01:29:03;9.00;1.00
6552;DHT22;3309;48.708;9.290;2023-12-29T01:31:30;9.00;1.00
6552;DHT22;3309;48.708;9.290;2023-12-29T01:33:58;8.90;1.00
6552;DHT22;3309;48.708;9.290;2023-12-29T01:36:25;8.90;1.00
6552;DHT22;3309;48.708;9.290;2023-12-29T01:38:50;8.90;1.00
6552;DHT22;3309;48.708;9.290;2023-12-29T01:41:18;8.90;1.00
6552;DHT22;3309;48.708;9.290;2023-12-29T01:46:23;8.80;1.00
6552;DHT22;3309;48.708;9.290;2023-12-29T01:48:49;8.90;1.00
6552;DHT22;3309;48.708;9.290;2023-12-29T01:51:15;9.00;99.90
6552;DHT22;3309;48.708;9.290;2023-12-29T01:53:41;8.90;1.00
6552;DHT22;3309;48.708;9.290;2023-12-29T01:56:08;8.90;1.00
6552;DHT22;3309;48.708;9.290;2023-12-29T01:58:35;8.90;1.00
6552;DHT22;3309;48.708;9.290;2023-12-29T02:01:01;8.80;1.00
6552;DHT22;3309;48.708;9.290;2023-12-29T02:03:27;8.90;1.00
6552;DHT22;3309;48.708;9.290;2023-12-29T02:05:55;8.90;1.00
6552;DHT22;3309;48.708;9.290;2023-12-29T02:08:22;9.00;99.90
6552;DHT22;3309;48.708;9.290;2023-12-29T02:10:48;8.90;99.90
6552;DHT22;3309;48.708;9.290;2023-12-29T02:13:13;8.90;99.90
6552;DHT22;3309;48.708;9.290;2023-12-29T02:15:40;8.90;1.00
6552;DHT22;3309;48.708;9.290;2023-12-29T02:18:06;8.90;1.00
6552;DHT22;3309;48.708;9.290;2023-12-29T02:20:33;8.80;1.00
6552;DHT22;3309;48.708;9.290;2023-12-29T02:22:59;8.80;1.00
6552;DHT22;3309;48.708;9.290;2023-12-29T02:25:26;8.90;1.00
6552;DHT22;3309;48.708;9.290;2023-12-29T02:28:01;9.00;1.00
6552;DHT22;3309;48.708;9.290;2023-12-29T02:30:45;8.90;1.00
6552;DHT22;3309;48.708;9.290;2023-12-29T02:33:19;8.90;1.00
6552;DHT22;3309;48.708;9.290;2023-12-29T02:35:45;9.00;99.90
6552;DHT22;3309;48.708;9.290;2023-12-29T02:38:12;9.00;99.90
6552;DHT22;3309;48.708;9.290;2023-12-29T02:40:38;9.00;1.00
6552;DHT22;3309;48.708;9.290;2023-12-29T02:43:04;9.00;99.90
6552;DHT22;3309;48.708;9.290;2023-12-29T02:45:29;9.10;1.00
6552;DHT22;3309;48.708;9.290;2023-12-29T02:47:55;9.20;99.90
6552;DHT22;3309;48.708;9.290;2023-12-29T02:50:21;9.20;1.00
6552;DHT22;3309;48.708;9.290;2023-12-29T02:52:46;9.20;1.00
6552;DHT22;3309;48.708;9.290;2023-12-29T02:55:12;9.20;1.00
6552;DHT22;3309;48.708;9.290;2023-12-29T02:57:38;9.20;1.00
6552;DHT22;3309;48.708;9.290;2023-12-29T03:00:05;9.20;1.00
6552;DHT22;3309;48.708;9.290;2023-12-29T03:02:31;9.10;1.00
6552;DHT22;3309;48.708;9.290;2023-12-29T03:04:58;9.20;1.00
6552;DHT22;3309;48.708;9.290;2023-12-29T03:07:23;9.20;1.00
6552;DHT22;3309;48.708;9.290;2023-12-29T03:09:49;9.10;1.00
6552;DHT22;3309;48.708;9.290;2023-12-29T03:12:15;9.10;1.00
6552;DHT22;3309;48.708;9.290;2023-12-29T03:14:40;9.00;1.00
6552;DHT22;3309;48.708;9.290;2023-12-29T03:17:06;9.00;1.00
6552;DHT22;3309;48.708;9.290;2023-12-29T03:19:31;9.00;1.00
6552;DHT22;3309;48.708;9.290;2023-12-29T03:21:57;9.00;1.00
6552;DHT22;3309;48.708;9.290;2023-12-29T03:24:22;9.00;1.00
6552;DHT22;3309;48.708;9.290;2023-12-29T03:26:48;9.00;1.00
6552;DHT22;3309;48.708;9.290;2023-12-29T03:29:13;9.00;1.00
6552;DHT22;3309;48.708;9.290;2023-12-29T03:31:39;9.00;1.00
6552;DHT22;3309;48.708;9.290;2023-12-29T03:34:05;9.00;1.00
6552;DHT22;3309;48.708;9.290;2023-12-29T03:36:31;9.00;1.00
6552;DHT22;3309;48.708;9.290;2023-12-29T03:38:57;9.00;1.00
6552;DHT22;3309;48.708;9.290;2023-12-29T03:41:22;9.00;1.00
6552;DHT22;3309;48.708;9.290;2023-12-29T03:43:48;9.00;1.00
6552;DHT22;3309;48.708;9.290;2023-12-29T03:46:18;9.00;1.00
6552;DHT22;3309;48.708;9.290;2023-12-29T03:48:43;9.00;1.00
6552;DHT22;3309;48.708;9.290;2023-12-29T03:51:09;8.90;1.00
6552;DHT22;3309;48.708;9.290;2023-12-29T03:53:35;8.80;1.00
6552;DHT22;3309;48.708;9.290;2023-12-29T03:56:04;8.80;1.00
6552;DHT22;3309;48.708;9.290;2023-12-29T03:58:30;8.60;1.00
6552;DHT22;3309;48.708;9.290;2023-12-29T04:00:56;8.60;1.00
6552;DHT22;3309;48.708;9.290;2023-12-29T04:03:21;8.60;1.00
6552;DHT22;3309;48.708;9.290;2023-12-29T04:05:47;8.50;1.00
6552;DHT22;3309;48.708;9.290;2023-12-29T04:08:13;8.40;11.10
6552;DHT22;3309;48.708;9.290;2023-12-29T04:10:38;8.40;8.10
6552;DHT22;3309;48.708;9.290;2023-12-29T04:13:04;8.50;26.00
6552;DHT22;3309;48.708;9.290;2023-12-29T04:15:30;8.40;26.00
6552;DHT22;3309;48.708;9.290;2023-12-29T04:17:56;8.30;33.60
6552;DHT22;3309;48.708;9.290;2023-12-29T04:20:21;8.30;48.60
6552;DHT22;3309;48.708;9.290;2023-12-29T04:22:47;8.40;36.00
6552;DHT22;3309;48.708;9.290;2023-12-29T04:25:12;8.40;44.60
6552;DHT22;3309;48.708;9.290;2023-12-29T04:27:40;8.30;50.60
6552;DHT22;3309;48.708;9.290;2023-12-29T04:30:06;8.20;63.10
6552;DHT22;3309;48.708;9.290;2023-12-29T04:32:33;8.20;92.20
6552;DHT22;3309;48.708;9.290;2023-12-29T04:34:58;8.30;99.10
6552;DHT22;3309;48.708;9.290;2023-12-29T04:37:24;8.20;97.90
6552;DHT22;3309;48.708;9.290;2023-12-29T04:39:49;8.10;99.90
6552;DHT22;3309;48.708;9.290;2023-12-29T04:42:15;8.10;99.90
6552;DHT22;3309;48.708;9.290;2023-12-29T04:44:42;8.10;99.90
6552;DHT22;3309;48.708;9.290;2023-12-29T04:47:07;8.20;99.90
6552;DHT22;3309;48.708;9.290;2023-12-29T04:49:33;8.20;99.90
6552;DHT22;3309;48.708;9.290;2023-12-29T04:51:58;8.20;99.90
6552;DHT22;3309;48.708;9.290;2023-12-29T04:54:25;8.10;99.90
6552;DHT22;3309;48.708;9.290;2023-12-29T04:56:50;8.10;99.90
6552;DHT22;3309;48.708;9.290;2023-12-29T04:59:16;8.10;99.90
6552;DHT22;3309;48.708;9.290;2023-12-29T05:01:42;8.10;99.90
6552;DHT22;3309;48.708;9.290;2023-12-29T05:04:07;8.10;99.90
6552;DHT22;3309;48.708;9.290;2023-12-29T05:06:33;8.00;99.90
6552;DHT22;3309;48.708;9.290;2023-12-29T05:08:58;8.00;99.90
6552;DHT22;3309;48.708;9.290;2023-12-29T05:11:24;8.00;99.90
6552;DHT22;3309;48.708;9.290;2023-12-29T05:13:50;8.00;99.90
6552;DHT22;3309;48.708;9.290;2023-12-29T05:16:15;7.90;99.90
6552;DHT22;3309;48.708;9.290;2023-12-29T05:18:41;8.00;99.90
6552;DHT22;3309;48.708;9.290;2023-12-29T05:21:14;8.00;99.90
6552;DHT22;3309;48.708;9.290;2023-12-29T05:23:41;7.90;99.90
6552;DHT22;3309;48.708;9.290;2023-12-29T05:26:06;8.00;99.90
6552;DHT22;3309;48.708;9.290;2023-12-29T05:28:32;8.00;99.90
6552;DHT22;3309;48.708;9.290;2023-12-29T05:30:57;8.10;99.90
6552;DHT22;3309;48.708;9.290;2023-12-29T05:33:24;8.00;99.90
6552;DHT22;3309;48.708;9.290;2023-12-29T05:35:51;8.10;99.90
6552;DHT22;3309;48.708;9.290;2023-12-29T05:38:16;8.10;99.90
6552;DHT22;3309;48.708;9.290;2023-12-29T05:40:42;8.20;99.90
6552;DHT22;3309;48.708;9.290;2023-12-29T05:43:07;8.20;99.90
6552;DHT22;3309;48.708;9.290;2023-12-29T05:45:33;8.10;99.90
6552;DHT22;3309;48.708;9.290;2023-12-29T05:47:59;8.00;99.90
6552;DHT22;3309;48.708;9.290;2023-12-29T05:50:25;7.90;99.90
6552;DHT22;3309;48.708;9.290;2023-12-29T05:52:50;7.90;99.90
6552;DHT22;3309;48.708;9.290;2023-12-29T05:55:18;7.90;99.90
6552;DHT22;3309;48.708;9.290;2023-12-29T05:57:44;7.90;99.90
6552;DHT22;3309;48.708;9.290;2023-12-29T06:00:10;7.90;99.90
6552;DHT22;3309;48.708;9.290;2023-12-29T06:02:43;7.80;99.90
6552;DHT22;3309;48.708;9.290;2023-12-29T06:05:12;7.80;99.90
6552;DHT22;3309;48.708;9.290;2023-12-29T06:07:38;7.80;99.90
6552;DHT22;3309;48.708;9.290;2023-12-29T06:10:04;7.80;99.90
6552;DHT22;3309;48.708;9.290;2023-12-29T06:12:29;7.90;99.90
6552;DHT22;3309;48.708;9.290;2023-12-29T06:14:55;8.00;99.90
6552;DHT22;3309;48.708;9.290;2023-12-29T06:17:20;8.20;99.90
6552;DHT22;3309;48.708;9.290;2023-12-29T06:19:46;8.20;99.90
6552;DHT22;3309;48.708;9.290;2023-12-29T06:22:12;8.20;99.90
6552;DHT22;3309;48.708;9.290;2023-12-29T06:24:40;8.30;99.90
6552;DHT22;3309;48.708;9.290;2023-12-29T06:27:07;8.50;99.90
6552;DHT22;3309;48.708;9.290;2023-12-29T06:29:33;8.40;99.90
6552;DHT22;3309;48.708;9.290;2023-12-29T06:31:59;8.40;99.90
6552;DHT22;3309;48.708;9.290;2023-12-29T06:34:24;8.40;99.90
6552;DHT22;3309;48.708;9.290;2023-12-29T06:36:50;8.30;99.90
6552;DHT22;3309;48.708;9.290;2023-12-29T06:39:16;8.50;99.90
6552;DHT22;3309;48.708;9.290;2023-12-29T06:41:41;8.30;99.90
6552;DHT22;3309;48.708;9.290;2023-12-29T06:44:07;8.20;99.90
6552;DHT22;3309;48.708;9.290;2023-12-29T06:46:32;8.20;99.90
6552;DHT22;3309;48.708;9.290;2023-12-29T06:48:58;8.30;99.90
6552;DHT22;3309;48.708;9.290;2023-12-29T06:51:24;8.10;99.90
6552;DHT22;3309;48.708;9.290;2023-12-29T06:53:50;8.10;99.90
6552;DHT22;3309;48.708;9.290;2023-12-29T06:56:16;8.10;99.90
6552;DHT22;3309;48.708;9.290;2023-12-29T06:58:43;8.20;99.90
6552;DHT22;3309;48.708;9.290;2023-12-29T07:01:09;8.20;99.90
6552;DHT22;3309;48.708;9.290;2023-12-29T07:03:34;8.50;99.90
6552;DHT22;3309;48.708;9.290;2023-12-29T07:06:01;8.50;99.90
6552;DHT22;3309;48.708;9.290;2023-12-29T07:08:27;8.30;99.90
6552;DHT22;3309;48.708;9.290;2023-12-29T07:10:53;8.50;99.90
6552;DHT22;3309;48.708;9.290;2023-12-29T07:13:19;8.40;99.90
6552;DHT22;3309;48.708;9.290;2023-12-29T07:15:47;8.40;99.90
6552;DHT22;3309;48.708;9.290;2023-12-29T07:18:13;8.40;99.90
6552;DHT22;3309;48.708;9.290;2023-12-29T07:20:39;8.30;99.90
6552;DHT22;3309;48.708;9.290;2023-12-29T07:23:05;8.30;99.90
6552;DHT22;3309;48.708;9.290;2023-12-29T07:25:30;8.30;99.90
6552;DHT22;3309;48.708;9.290;2023-12-29T07:27:56;8.40;99.90
6552;DHT22;3309;48.708;9.290;2023-12-29T07:30:22;8.50;99.90
6552;DHT22;3309;48.708;9.290;2023-12-29T07:32:47;8.50;99.90
6552;DHT22;3309;48.708;9.290;2023-12-29T07:35:13;8.50;99.90
6552;DHT22;3309;48.708;9.290;2023-12-29T07:37:43;8.50;99.90
6552;DHT22;3309;48.708;9.290;2023-12-29T07:40:11;8.50;99.90
6552;DHT22;3309;48.708;9.290;2023-12-29T07:42:37;8.60;99.90
6552;DHT22;3309;48.708;9.290;2023-12-29T07:45:02;8.60;99.90
6552;DHT22;3309;48.708;9.290;2023-12-29T07:47:28;8.70;99.90
6552;DHT22;3309;48.708;9.290;2023-12-29T07:49:54;8.80;99.90
6552;DHT22;3309;48.708;9.290;2023-12-29T07:52:19;9.00;99.90
6552;DHT22;3309;48.708;9.290;2023-12-29T07:54:45;9.20;99.90
6552;DHT22;3309;48.708;9.290;2023-12-29T07:57:10;9.20;99.90
6552;DHT22;3309;48.708;9.290;2023-12-29T07:59:36;9.40;99.90
6552;DHT22;3309;48.708;9.290;2023-12-29T08:02:01;9.60;90.10
6552;DHT22;3309;48.708;9.290;2023-12-29T08:04:27;9.70;91.30
6552;DHT22;3309;48.708;9.290;2023-12-29T08:06:53;9.50;99.90
6552;DHT22;3309;48.708;9.290;2023-12-29T08:09:18;9.60;99.90
6552;DHT22;3309;48.708;9.290;2023-12-29T08:11:46;9.30;99.90
6552;DHT22;3309;48.708;9.290;2023-12-29T08:14:12;9.30;99.90
6552;DHT22;3309;48.708;9.290;2023-12-29T08:16:38;9.30;99.90
6552;DHT22;3309;48.708;9.290;2023-12-29T08:19:05;9.30;99.90
6552;DHT22;3309;48.708;9.290;2023-12-29T08:21:32;9.30;99.90
6552;DHT22;3309;48.708;9.290;2023-12-29T08:23:57;9.30;99.90
6552;DHT22;3309;48.708;9.290;2023-12-29T08:26:23;9.40;99.90
6552;DHT22;3309;48.708;9.290;2023-12-29T08:28:48;9.50;99.90
6552;DHT22;3309;48.708;9.290;2023-12-29T08:31:14;9.60;99.90
6552;DHT22;3309;48.708;9.290;2023-12-29T08:33:40;9.70;99.90
6552;DHT22;3309;48.708;9.290;2023-12-29T08:36:06;10.00;64.10
6552;DHT22;3309;48.708;9.290;2023-12-29T08:38:33;10.10;65.60
6552;DHT22;3309;48.708;9.290;2023-12-29T08:40:59;10.60;1.10
6552;DHT22;3309;48.708;9.290;2023-12-29T08:43:25;11.20;1.00
6552;DHT22;3309;48.708;9.290;2023-12-29T08:45:51;11.20;1.00
6552;DHT22;3309;48.708;9.290;2023-12-29T08:48:17;11.00;1.00
6552;DHT22;3309;48.708;9.290;2023-12-29T08:50:43;11.20;1.00
6552;DHT22;3309;48.708;9.290;2023-12-29T08:53:09;11.50;1.00
6552;DHT22;3309;48.708;9.290;2023-12-29T08:55:36;11.70;1.00
6552;DHT22;3309;48.708;9.290;2023-12-29T08:58:02;11.60;1.00
6552;DHT22;3309;48.708;9.290;2023-12-29T09:00:27;11.60;1.00
6552;DHT22;3309;48.708;9.290;2023-12-29T09:02:56;11.50;1.00
6552;DHT22;3309;48.708;9.290;2023-12-29T09:05:21;11.80;1.00
6552;DHT22;3309;48.708;9.290;2023-12-29T09:07:47;11.20;1.00
6552;DHT22;3309;48.708;9.290;2023-12-29T09:10:12;10.70;1.00
6552;DHT22;3309;48.708;9.290;2023-12-29T09:12:39;10.40;1.00
6552;DHT22;3309;48.708;9.290;2023-12-29T09:15:05;10.30;1.00
6552;DHT22;3309;48.708;9.290;2023-12-29T09:17:31;10.20;1.00
6552;DHT22;3309;48.708;9.290;2023-12-29T09:19:56;10.20;1.00
6552;DHT22;3309;48.708;9.290;2023-12-29T09:22:22;10.10;1.00
6552;DHT22;3309;48.708;9.290;2023-12-29T09:24:48;10.20;1.00
6552;DHT22;3309;48.708;9.290;2023-12-29T09:27:13;10.30;1.00
6552;DHT22;3309;48.708;9.290;2023-12-29T09:29:39;10.30;1.00
6552;DHT22;3309;48.708;9.290;2023-12-29T09:32:06;10.40;1.00
6552;DHT22;3309;48.708;9.290;2023-12-29T09:34:31;10.40;1.00
6552;DHT22;3309;48.708;9.290;2023-12-29T09:36:57;10.30;1.00
6552;DHT22;3309;48.708;9.290;2023-12-29T09:39:23;10.30;1.00
6552;DHT22;3309;48.708;9.290;2023-12-29T09:41:51;10.30;1.00
6552;DHT22;3309;48.708;9.290;2023-12-29T09:44:20;10.30;1.00
6552;DHT22;3309;48.708;9.290;2023-12-29T09:46:49;10.30;1.00
6552;DHT22;3309;48.708;9.290;2023-12-29T09:49:16;10.40;1.00
6552;DHT22;3309;48.708;9.290;2023-12-29T09:51:44;10.60;1.00
6552;DHT22;3309;48.708;9.290;2023-12-29T09:54:10;10.50;1.00
6552;DHT22;3309;48.708;9.290;2023-12-29T09:56:37;10.40;1.00
6552;DHT22;3309;48.708;9.290;2023-12-29T09:59:03;10.30;1.00
6552;DHT22;3309;48.708;9.290;2023-12-29T10:01:29;10.40;1.00
6552;DHT22;3309;48.708;9.290;2023-12-29T10:03:56;10.20;1.00
6552;DHT22;3309;48.708;9.290;2023-12-29T10:06:25;10.20;1.00
6552;DHT22;3309;48.708;9.290;2023-12-29T10:08:51;10.10;1.00
6552;DHT22;3309;48.708;9.290;2023-12-29T10:11:20;10.10;1.00
6552;DHT22;3309;48.708;9.290;2023-12-29T10:13:49;10.20;1.00
6552;DHT22;3309;48.708;9.290;2023-12-29T10:16:18;10.20;1.00
6552;DHT22;3309;48.708;9.290;2023-12-29T10:19:15;10.30;1.00
6552;DHT22;3309;48.708;9.290;2023-12-29T10:22:25;10.40;1.00
6552;DHT22;3309;48.708;9.290;2023-12-29T10:24:31;10.50;1.00
6552;DHT22;3309;48.708;9.290;2023-12-29T10:26:57;10.60;1.00
6552;DHT22;3309;48.708;9.290;2023-12-29T10:29:23;10.90;1.00
6552;DHT22;3309;48.708;9.290;2023-12-29T10:31:49;12.30;99.90
6552;DHT22;3309;48.708;9.290;2023-12-29T10:34:23;14.40;99.90
6552;DHT22;3309;48.708;9.290;2023-12-29T10:36:59;15.10;1.00
6552;DHT22;3309;48.708;9.290;2023-12-29T10:39:25;15.70;99.90
6552;DHT22;3309;48.708;9.290;2023-12-29T10:42:05;14.80;99.90
6552;DHT22;3309;48.708;9.290;2023-12-29T10:44:33;14.30;99.90
6552;DHT22;3309;48.708;9.290;2023-12-29T10:46:59;13.10;99.90
6552;DHT22;3309;48.708;9.290;2023-12-29T10:49:32;13.10;1.00
6552;DHT22;3309;48.708;9.290;2023-12-29T10:51:58;13.60;1.00
6552;DHT22;3309;48.708;9.290;2023-12-29T10:54:23;13.80;1.00
6552;DHT22;3309;48.708;9.290;2023-12-29T10:57:10;14.10;1.00
6552;DHT22;3309;48.708;9.290;2023-12-29T10:59:35;14.00;1.00
6552;DHT22;3309;48.708;9.290;2023-12-29T11:02:01;14.00;1.00
6552;DHT22;3309;48.708;9.290;2023-12-29T11:04:29;14.10;1.00
6552;DHT22;3309;48.708;9.290;2023-12-29T11:06:54;14.40;1.00
6552;DHT22;3309;48.708;9.290;2023-12-29T11:09:33;14.70;99.90
6552;DHT22;3309;48.708;9.290;2023-12-29T11:12:03;15.50;99.90
6552;DHT22;3309;48.708;9.290;2023-12-29T11:14:30;15.30;99.90
6552;DHT22;3309;48.708;9.290;2023-12-29T11:16:56;16.00;99.90
6552;DHT22;3309;48.708;9.290;2023-12-29T11:19:23;17.00;1.00
6552;DHT22;3309;48.708;9.290;2023-12-29T11:21:57;16.90;1.00
6552;DHT22;3309;48.708;9.290;2023-12-29T11:24:24;16.10;1.00
6552;DHT22;3309;48.708;9.290;2023-12-29T11:26:51;15.80;1.00
6552;DHT22;3309;48.708;9.290;2023-12-29T11:29:18;15.50;1.00
6552;DHT22;3309;48.708;9.290;2023-12-29T11:31:45;14.90;1.00
6552;DHT22;3309;48.708;9.290;2023-12-29T11:34:20;14.70;15.30
6552;DHT22;3309;48.708;9.290;2023-12-29T11:36:49;14.30;25.50
6552;DHT22;3309;48.708;9.290;2023-12-29T11:39:24;13.90;99.90
6552;DHT22;3309;48.708;9.290;2023-12-29T11:42:12;13.80;99.90
6552;DHT22;3309;48.708;9.290;2023-12-29T11:44:39;13.60;99.90
6552;DHT22;3309;48.708;9.290;2023-12-29T11:47:05;13.90;99.90
6552;DHT22;3309;48.708;9.290;2023-12-29T11:49:59;13.80;99.90
6552;DHT22;3309;48.708;9.290;2023-12-29T11:52:37;13.80;99.90
6552;DHT22;3309;48.708;9.290;2023-12-29T11:55:11;14.40;99.90
6552;DHT22;3309;48.708;9.290;2023-12-29T11:57:38;14.30;99.90
6552;DHT22;3309;48.708;9.290;2023-12-29T12:00:06;14.20;99.90
6552;DHT22;3309;48.708;9.290;2023-12-29T12:02:33;14.30;99.90
6552;DHT22;3309;48.708;9.290;2023-12-29T12:04:58;13.80;49.80
6552;DHT22;3309;48.708;9.290;2023-12-29T12:10:28;14.10;80.60
6552;DHT22;3309;48.708;9.290;2023-12-29T12:12:58;13.30;99.90
6552;DHT22;3309;48.708;9.290;2023-12-29T12:17:57;13.40;99.90
6552;DHT22;3309;48.708;9.290;2023-12-29T12:20:22;13.80;99.90
6552;DHT22;3309;48.708;9.290;2023-12-29T12:23:16;13.70;99.90
6552;DHT22;3309;48.708;9.290;2023-12-29T12:25:43;13.30;99.90
6552;DHT22;3309;48.708;9.290;2023-12-29T12:28:13;13.30;99.90
6552;DHT22;3309;48.708;9.290;2023-12-29T12:30:39;13.30;99.90
6552;DHT22;3309;48.708;9.290;2023-12-29T12:33:05;13.50;99.90
6552;DHT22;3309;48.708;9.290;2023-12-29T12:35:30;13.40;99.90
6552;DHT22;3309;48.708;9.290;2023-12-29T12:38:10;13.40;99.90
6552;DHT22;3309;48.708;9.290;2023-12-29T12:40:35;13.70;92.30
6552;DHT22;3309;48.708;9.290;2023-12-29T12:43:02;14.50;11.20
6552;DHT22;3309;48.708;9.290;2023-12-29T12:45:29;14.80;1.00
6552;DHT22;3309;48.708;9.290;2023-12-29T12:48:13;14.30;1.00
6552;DHT22;3309;48.708;9.290;2023-12-29T12:50:46;14.60;1.00
6552;DHT22;3309;48.708;9.290;2023-12-29T12:53:13;15.10;1.00
6552;DHT22;3309;48.708;9.290;2023-12-29T12:55:49;15.40;1.00
6552;DHT22;3309;48.708;9.290;2023-12-29T12:58:17;15.50;1.00
6552;DHT22;3309;48.708;9.290;2023-12-29T13:00:44;16.90;1.00
6552;DHT22;3309;48.708;9.290;2023-12-29T13:03:10;16.70;1.00
6552;DHT22;3309;48.708;9.290;2023-12-29T13:05:36;16.90;1.00
6552;DHT22;3309;48.708;9.290;2023-12-29T13:08:03;17.50;1.00
6552;DHT22;3309;48.708;9.290;2023-12-29T13:10:30;17.20;1.00
6552;DHT22;3309;48.708;9.290;2023-12-29T13:12:56;17.50;1.00
6552;DHT22;3309;48.708;9.290;2023-12-29T13:15:22;17.70;1.00
6552;DHT22;3309;48.708;9.290;2023-12-29T13:17:54;17.60;1.00
6552;DHT22;3309;48.708;9.290;2023-12-29T13:20:20;16.10;1.00
6552;DHT22;3309;48.708;9.290;2023-12-29T13:22:49;16.70;1.00
6552;DHT22;3309;48.708;9.290;2023-12-29T13:25:20;15.60;1.00
6552;DHT22;3309;48.708;9.290;2023-12-29T13:27:47;16.10;1.00
6552;DHT22;3309;48.708;9.290;2023-12-29T13:30:13;16.30;1.00
6552;DHT22;3309;48.708;9.290;2023-12-29T13:32:41;16.50;1.00
6552;DHT22;3309;48.708;9.290;2023-12-29T13:35:24;15.70;1.00
6552;DHT22;3309;48.708;9.290;2023-12-29T13:40:28;13.60;1.00
6552;DHT22;3309;48.708;9.290;2023-12-29T13:43:01;13.60;1.00
6552;DHT22;3309;48.708;9.290;2023-12-29T13:45:29;13.10;1.00
6552;DHT22;3309;48.708;9.290;2023-12-29T13:47:55;12.80;1.00
6552;DHT22;3309;48.708;9.290;2023-12-29T13:50:22;12.50;1.00
6552;DHT22;3309;48.708;9.290;2023-12-29T13:52:47;12.80;1.00
6552;DHT22;3309;48.708;9.290;2023-12-29T13:55:24;12.70;1.00
6552;DHT22;3309;48.708;9.290;2023-12-29T13:57:50;13.40;1.00
6552;DHT22;3309;48.708;9.290;2023-12-29T14:00:20;13.50;1.00
6552;DHT22;3309;48.708;9.290;2023-12-29T14:08:32;12.50;1.00
6552;DHT22;3309;48.708;9.290;2023-12-29T14:10:59;12.80;1.00
6552;DHT22;3309;48.708;9.290;2023-12-29T14:13:25;12.30;1.00
6552;DHT22;3309;48.708;9.290;2023-12-29T14:15:51;12.30;1.00
6552;DHT22;3309;48.708;9.290;2023-12-29T14:20:57;11.90;30.70
6552;DHT22;3309;48.708;9.290;2023-12-29T14:23:23;12.10;42.00
6552;DHT22;3309;48.708;9.290;2023-12-29T14:25:49;12.00;79.00
6552;DHT22;3309;48.708;9.290;2023-12-29T14:28:19;11.90;24.10
6552;DHT22;3309;48.708;9.290;2023-12-29T14:30:45;11.80;12.00
6552;DHT22;3309;48.708;9.290;2023-12-29T14:33:11;11.80;29.30
6552;DHT22;3309;48.708;9.290;2023-12-29T14:35:38;11.80;32.10
6552;DHT22;3309;48.708;9.290;2023-12-29T14:38:04;11.70;76.40
6552;DHT22;3309;48.708;9.290;2023-12-29T14:40:29;11.60;1.00
6552;DHT22;3309;48.708;9.290;2023-12-29T14:42:55;11.60;31.70
6552;DHT22;3309;48.708;9.290;2023-12-29T14:45:21;11.60;7.50
6552;DHT22;3309;48.708;9.290;2023-12-29T14:47:46;11.60;1.00
6552;DHT22;3309;48.708;9.290;2023-12-29T14:50:14;11.60;1.00
6552;DHT22;3309;48.708;9.290;2023-12-29T14:52:40;11.50;1.00
6552;DHT22;3309;48.708;9.290;2023-12-29T14:55:06;11.50;1.00
6552;DHT22;3309;48.708;9.290;2023-12-29T14:57:31;11.50;1.00
6552;DHT22;3309;48.708;9.290;2023-12-29T14:59:57;11.50;2.80
6552;DHT22;3309;48.708;9.290;2023-12-29T15:02:22;11.40;1.00
6552;DHT22;3309;48.708;9.290;2023-12-29T15:04:48;11.40;1.00
6552;DHT22;3309;48.708;9.290;2023-12-29T15:07:15;11.30;1.00
6552;DHT22;3309;48.708;9.290;2023-12-29T15:09:41;11.30;5.80
6552;DHT22;3309;48.708;9.290;2023-12-29T15:12:07;11.20;19.70
6552;DHT22;3309;48.708;9.290;2023-12-29T15:14:32;11.20;15.90
6552;DHT22;3309;48.708;9.290;2023-12-29T15:16:58;11.20;1.00
6552;DHT22;3309;48.708;9.290;2023-12-29T15:19:24;11.20;1.00
6552;DHT22;3309;48.708;9.290;2023-12-29T15:21:49;11.10;1.00
6552;DHT22;3309;48.708;9.290;2023-12-29T15:24:19;11.20;1.00
6552;DHT22;3309;48.708;9.290;2023-12-29T15:26:45;11.00;1.00
6552;DHT22;3309;48.708;9.290;2023-12-29T15:29:11;10.90;1.00
6552;DHT22;3309;48.708;9.290;2023-12-29T15:31:36;10.80;1.00
6552;DHT22;3309;48.708;9.290;2023-12-29T15:34:02;10.70;1.00
6552;DHT22;3309;48.708;9.290;2023-12-29T15:36:27;10.70;1.00
6552;DHT22;3309;48.708;9.290;2023-12-29T15:38:53;10.70;1.00
6552;DHT22;3309;48.708;9.290;2023-12-29T15:41:19;10.60;1.00
6552;DHT22;3309;48.708;9.290;2023-12-29T15:43:44;10.50;1.00
6552;DHT22;3309;48.708;9.290;2023-12-29T15:46:16;10.40;1.00
6552;DHT22;3309;48.708;9.290;2023-12-29T15:48:42;10.30;1.00
6552;DHT22;3309;48.708;9.290;2023-12-29T15:51:08;10.30;1.00
6552;DHT22;3309;48.708;9.290;2023-12-29T15:53:37;10.30;1.00
6552;DHT22;3309;48.708;9.290;2023-12-29T15:56:04;10.20;13.30
6552;DHT22;3309;48.708;9.290;2023-12-29T15:58:30;10.00;68.60
6552;DHT22;3309;48.708;9.290;2023-12-29T16:00:58;10.00;60.60
6552;DHT22;3309;48.708;9.290;2023-12-29T16:03:23;10.00;90.30
6552;DHT22;3309;48.708;9.290;2023-12-29T16:05:49;10.00;83.30
6552;DHT22;3309;48.708;9.290;2023-12-29T16:08:15;9.90;94.50
6552;DHT22;3309;48.708;9.290;2023-12-29T16:10:41;9.80;99.90
6552;DHT22;3309;48.708;9.290;2023-12-29T16:13:06;9.80;99.90
6552;DHT22;3309;48.708;9.290;2023-12-29T16:15:32;9.80;99.90
6552;DHT22;3309;48.708;9.290;2023-12-29T16:17:58;9.70;99.90
6552;DHT22;3309;48.708;9.290;2023-12-29T16:20:25;9.60;99.90
6552;DHT22;3309;48.708;9.290;2023-12-29T16:22:51;9.60;99.90
6552;DHT22;3309;48.708;9.290;2023-12-29T16:25:17;9.50;99.90
6552;DHT22;3309;48.708;9.290;2023-12-29T16:27:43;9.50;99.90
6552;DHT22;3309;48.708;9.290;2023-12-29T16:30:09;9.50;99.90
6552;DHT22;3309;48.708;9.290;2023-12-29T16:32:35;9.40;99.90
6552;DHT22;3309;48.708;9.290;2023-12-29T16:35:01;9.20;99.90
6552;DHT22;3309;48.708;9.290;2023-12-29T16:37:27;9.20;99.90